Du har inga inställningar för hoppväder.nu

Hoppväder.nu

Senast uppdaterat 23:41

UTC-tid

2020-05-31 kl. 21:41


Sol och måne

Solen går upp 4:24 och går ner 22:39 (beräknade cirkatider)
Nästa fullmåne blir om 5 dagar (2020-06-05)

METAR

ESMK (Everöd)
(21 minuter sedan)
ESMK 312120Z AUTO 02004KT 9999 NCD 11/05 Q1028=



ESMS (Malmö)
(21 minuter sedan)
ESMS 312120Z 00000KT CAVOK 10/05 Q1028=



ESMX (Växjö)
(21 minuter sedan)
ESMX 312120Z AUTO 06005KT 020V080 9999 NCD 14/04 Q1029=



ESDF (Ronneby)
(21 minuter sedan)
ESDF 312120Z AUTO 04011KT 9999 NCD 13/04 Q1027=



EKRN (Rønne, Bornholm)
(21 minuter sedan)
EKRN 312120Z AUTO 04005KT 350V100 9999 NCD 12/06 Q1027=



TAF

ESMK (Everöd)
ESMK



ESMS (Malmö)
(280 minuter sedan)
ESMS 311701Z 3118/0118 09006KT CAVOK BECMG 0112/0114 31010KT=



ESMX (Växjö)
ESMX



ESDF (Ronneby)
ESDF



EKRN (Rønne, Bornholm)
(258 minuter sedan)
EKRN 311723Z 3118/3122 05015KT CAVOK TEMPO 3118/3120 04018G28KT=





Kodnycklar till TAF och METAR






LHP

(Everöd är område se11e i Hela Område 1)





Preliminär prognos

ÖVERSIKTLIG PROGNOS FÖR OMRÅDE se1 UTFÄRDAD 311151
GÄLLANDE DEN 1 JUNI 2020 MELLAN 04 OCH 16 UTC


Väderöversikt
Se väderöversikt för område se2 + se3



Delområde se11


Sikt/Väder/Moln
04-16UTC: I hela området: Sikt >8km. Molnbas >4000ft.

CB/TCU Moln
04-16UTC: I hela området: Väntas inte förekomma under perioden

Vind vid marken
04-08UTC: Område se11e: NV-N/1-6 knop, byar upp till 12 knop.
Område se11i: N-NO/5-15 knop, byar upp till 19 knop.
Område se11c: N-NO/1-9 knop.
Område se11a: NO-O/0-5 knop.
Område se11b: NO-O/1-7 knop.
Område se11g: N-NO/4-12 knop, byar upp till 15 knop.
Område se11h: N/3-12 knop, byar upp till 15 knop.
Område se11f: N/1-7 knop, byar upp till 13 knop.
Område se11d: NO/0-6 knop, byar upp till 11 knop.

08-12UTC: Område se11b: NV-N/2-8 knop, byar upp till 13 knop.
Område se11f: N-NO/4-7 knop, byar upp till 17 knop.
Område se11e: N-NO/4-8 knop, byar upp till 18 knop.
Område se11g: NO/0-12 knop, byar upp till 17 knop.
Område se11a: NV/2-12 knop, byar upp till 20 knop.
Område se11i: N-NO/4-16 knop, byar upp till 23 knop.
Område se11h: N/0-9 knop, byar upp till 19 knop.
Område se11d: N/3-8 knop, byar upp till 16 knop.
Område se11c: N/2-12 knop, byar upp till 16 knop.

12-16UTC: Område se11d: NV/2-13 knop, byar upp till 21 knop.
Område se11e: N-NO/3-10 knop, byar upp till 21 knop.
Område se11a: V-NV/0-16 knop, byar upp till 24 knop.
Område se11g: SV-V/0-14 knop, byar upp till 27 knop.
Område se11c: NV-N/3-15 knop, byar upp till 25 knop.
Område se11f: N-NO/0-14 knop, byar upp till 24 knop.
Område se11b: V-NV/8-12 knop, byar upp till 22 knop.
Område se11i: NO/0-11 knop, byar upp till 22 knop.
Område se11h: SO/2-14 knop, byar upp till 26 knop.








Spotting

Hur fungerar spotthjälpen och Vindkartan?

Markvind är ca 0 m/s.



Vindkartan

Senast uppdaterad 23:41




All data kommer från LFV.se